Time;durP1;ratioP1;P1;durP2;ratioP2;P2;SDS_P1;SDS_P2;PMS_P1;PMS_P2;Temp;Humidity;BMP_temperature;BMP_pressure;BME280_temperature;BME280_humidity;BME280_pressure;Samples;Min_cycle;Max_cycle;Signal;HPM_P1;HPM_P2
2021/10/06 00:00:37;;;;;;;;;;;12.20;94.80;;;;;;4991482;28;20012;-68
2021/10/06 00:03:03;;;;;;;;;;;12.20;94.70;;;;;;4999763;28;19909;-68
2021/10/06 00:05:28;;;;;;;;;;;12.20;94.70;;;;;;4997755;28;19936;-67
2021/10/06 00:07:54;;;;;;;;;;;12.20;94.60;;;;;;4996111;28;19979;-68
2021/10/06 00:10:19;;;;;;;;;;;12.10;94.80;;;;;;4991028;28;20384;-68
2021/10/06 00:12:45;;;;;;;;;;;12.10;94.90;;;;;;4994514;28;19917;-68
2021/10/06 00:15:11;;;;;;;;;;;12.10;95.00;;;;;;4997151;28;20472;-69
2021/10/06 00:17:37;;;;;;;;;;;12.10;95.10;;;;;;4997592;28;20000;-67
2021/10/06 00:20:03;;;;;;;;;;;12.10;95.10;;;;;;4986652;28;19965;-66
2021/10/06 00:22:29;;;;;;;;;;;12.10;94.90;;;;;;4999456;28;19916;-66
2021/10/06 00:24:54;;;;;;;;;;;12.00;94.90;;;;;;4992975;28;19909;-68
2021/10/06 00:27:20;;;;;;;;;;;12.00;95.10;;;;;;5000368;28;19928;-68
2021/10/06 00:29:45;;;;;;;;;;;12.10;95.00;;;;;;5004328;28;20392;-68
2021/10/06 00:32:11;;;;;;;;;;;12.00;95.00;;;;;;4995140;28;19976;-68
2021/10/06 00:34:36;;;;;;;;;;;12.00;95.10;;;;;;5004855;28;19913;-68
2021/10/06 00:37:02;;;;;;;;;;;12.00;95.20;;;;;;4998619;28;19913;-67
2021/10/06 00:39:27;;;;;;;;;;;12.00;95.20;;;;;;4998106;28;19906;-69
2021/10/06 00:41:53;;;;;;;;;;;11.90;95.20;;;;;;4994701;28;19909;-68
2021/10/06 00:44:20;;;;;;;;;;;11.90;95.20;;;;;;4997843;28;19960;-67
2021/10/06 00:46:46;;;;;;;;;;;11.80;95.30;;;;;;4998070;28;19913;-68
2021/10/06 00:49:12;;;;;;;;;;;11.80;95.40;;;;;;5005647;28;19913;-67
2021/10/06 00:51:39;;;;;;;;;;;11.70;95.40;;;;;;4995888;28;20621;-69
2021/10/06 00:54:04;;;;;;;;;;;11.60;95.50;;;;;;5004625;28;19992;-68
2021/10/06 00:56:30;;;;;;;;;;;11.60;95.60;;;;;;4999511;28;20271;-68
2021/10/06 00:58:55;;;;;;;;;;;11.50;95.80;;;;;;4994458;28;19936;-68
2021/10/06 01:01:21;;;;;;;;;;;11.50;95.90;;;;;;4992979;28;19975;-68
2021/10/06 01:03:46;;;;;;;;;;;11.40;96.00;;;;;;4992684;28;19913;-68
2021/10/06 01:06:12;;;;;;;;;;;11.30;96.20;;;;;;4998811;28;20293;-68
2021/10/06 01:08:37;;;;;;;;;;;11.30;96.20;;;;;;4993987;28;19924;-69
2021/10/06 01:11:03;;;;;;;;;;;11.40;96.20;;;;;;4996578;28;19914;-68
2021/10/06 01:13:29;;;;;;;;;;;11.40;96.10;;;;;;4994358;28;19910;-68
2021/10/06 01:15:55;;;;;;;;;;;11.40;95.90;;;;;;5000548;28;19917;-68
2021/10/06 01:18:20;;;;;;;;;;;11.40;95.80;;;;;;4994296;28;19910;-68
2021/10/06 01:20:46;;;;;;;;;;;11.50;95.40;;;;;;4998652;28;20059;-68
2021/10/06 01:23:13;;;;;;;;;;;11.50;95.20;;;;;;5003852;28;20377;-68
2021/10/06 01:25:38;;;;;;;;;;;11.50;95.20;;;;;;4994858;28;19996;-67
2021/10/06 01:28:04;;;;;;;;;;;11.60;95.00;;;;;;4999572;28;20012;-68
2021/10/06 01:30:29;;;;;;;;;;;11.60;95.00;;;;;;5001277;28;19965;-68
2021/10/06 01:32:55;;;;;;;;;;;11.60;94.80;;;;;;5002388;28;19916;-68
2021/10/06 01:35:20;;;;;;;;;;;11.60;94.60;;;;;;5009420;28;19906;-68
2021/10/06 01:37:46;;;;;;;;;;;11.60;94.50;;;;;;4999643;28;19913;-68
2021/10/06 01:40:13;;;;;;;;;;;11.60;93.90;;;;;;4999525;28;20306;-69
2021/10/06 01:42:39;;;;;;;;;;;11.60;93.80;;;;;;5002463;28;19989;-68
2021/10/06 01:45:05;;;;;;;;;;;11.70;93.60;;;;;;5006058;28;19959;-68
2021/10/06 01:47:31;;;;;;;;;;;11.70;93.60;;;;;;4998175;28;20396;-67
2021/10/06 01:49:56;;;;;;;;;;;11.70;93.20;;;;;;4998835;28;19914;-68
2021/10/06 01:52:23;;;;;;;;;;;11.80;93.10;;;;;;5003918;28;20629;-69
2021/10/06 01:54:50;;;;;;;;;;;11.80;93.10;;;;;;4995127;28;20332;-68
2021/10/06 01:57:16;;;;;;;;;;;11.80;92.60;;;;;;4994785;28;19925;-68
2021/10/06 01:59:43;;;;;;;;;;;11.80;92.60;;;;;;5001124;28;19913;-68
2021/10/06 02:02:09;;;;;;;;;;;11.80;92.80;;;;;;4993347;28;19996;-69
2021/10/06 02:04:34;;;;;;;;;;;11.80;92.50;;;;;;5017322;28;20007;-68
2021/10/06 02:07:00;;;;;;;;;;;11.80;92.50;;;;;;4995222;28;19921;-67
2021/10/06 02:09:25;;;;;;;;;;;11.80;92.70;;;;;;4997088;28;20553;-68
2021/10/06 02:11:50;;;;;;;;;;;11.80;92.70;;;;;;4993288;28;19935;-68
2021/10/06 02:14:16;;;;;;;;;;;11.70;92.30;;;;;;5003614;28;19924;-66
2021/10/06 02:16:41;;;;;;;;;;;11.80;92.10;;;;;;5001681;28;19920;-68
2021/10/06 02:19:07;;;;;;;;;;;11.80;92.00;;;;;;4993030;28;20423;-67
2021/10/06 02:21:36;;;;;;;;;;;11.80;91.80;;;;;;4991374;28;19909;-68
2021/10/06 02:24:02;;;;;;;;;;;11.70;91.70;;;;;;5005190;28;20075;-67
2021/10/06 02:26:28;;;;;;;;;;;11.80;91.40;;;;;;4992554;28;20012;-69
2021/10/06 02:28:53;;;;;;;;;;;11.70;91.50;;;;;;4997421;28;20000;-66
2021/10/06 02:31:19;;;;;;;;;;;11.70;91.50;;;;;;5004569;28;19932;-67
2021/10/06 02:33:44;;;;;;;;;;;11.70;91.60;;;;;;5005593;28;20275;-68
2021/10/06 02:36:10;;;;;;;;;;;11.60;91.70;;;;;;4995024;28;19910;-67
2021/10/06 02:38:35;;;;;;;;;;;11.60;91.70;;;;;;4994934;28;19925;-69
2021/10/06 02:41:01;;;;;;;;;;;11.60;91.80;;;;;;5001907;28;19909;-69
2021/10/06 02:43:26;;;;;;;;;;;11.60;92.00;;;;;;5003645;28;19909;-68
2021/10/06 02:45:52;;;;;;;;;;;11.50;92.10;;;;;;4998636;28;19909;-69
2021/10/06 02:48:17;;;;;;;;;;;11.40;92.40;;;;;;5000255;28;19922;-69
2021/10/06 02:50:43;;;;;;;;;;;11.30;92.70;;;;;;5006842;28;20047;-67
2021/10/06 02:53:08;;;;;;;;;;;11.20;92.90;;;;;;4997375;28;19956;-69
2021/10/06 02:55:34;;;;;;;;;;;11.10;93.40;;;;;;4997762;28;20372;-67
2021/10/06 02:58:00;;;;;;;;;;;11.00;93.40;;;;;;4996171;28;19917;-68
2021/10/06 03:00:25;;;;;;;;;;;11.00;93.90;;;;;;4992616;28;19913;-69
2021/10/06 03:02:51;;;;;;;;;;;10.90;93.90;;;;;;4996661;28;20261;-69
2021/10/06 03:05:16;;;;;;;;;;;10.80;94.30;;;;;;4992406;28;19964;-68
2021/10/06 03:07:42;;;;;;;;;;;10.70;94.30;;;;;;4995066;28;19917;-68
2021/10/06 03:10:09;;;;;;;;;;;10.60;94.60;;;;;;4991544;28;19914;-68
2021/10/06 03:12:34;;;;;;;;;;;10.60;94.80;;;;;;4996327;28;20316;-69
2021/10/06 03:15:00;;;;;;;;;;;10.50;94.80;;;;;;4998925;28;19913;-69
2021/10/06 03:17:26;;;;;;;;;;;10.60;95.00;;;;;;4997053;28;20164;-68
2021/10/06 03:19:51;;;;;;;;;;;10.50;94.80;;;;;;4994642;28;19913;-68
2021/10/06 03:22:17;;;;;;;;;;;10.50;95.00;;;;;;4992930;28;19932;-66
2021/10/06 03:24:43;;;;;;;;;;;10.50;95.10;;;;;;4998002;28;20162;-69
2021/10/06 03:27:08;;;;;;;;;;;10.50;95.10;;;;;;4990111;28;19920;-70
2021/10/06 03:29:33;;;;;;;;;;;10.50;95.10;;;;;;4998173;28;19914;-67
2021/10/06 03:32:00;;;;;;;;;;;10.50;95.20;;;;;;4986746;28;19921;-69
2021/10/06 03:34:25;;;;;;;;;;;10.50;95.20;;;;;;4996183;28;19910;-68
2021/10/06 03:36:51;;;;;;;;;;;10.50;95.20;;;;;;4988290;28;19964;-68
2021/10/06 03:39:17;;;;;;;;;;;10.50;94.80;;;;;;4999483;28;20004;-69
2021/10/06 03:41:42;;;;;;;;;;;10.40;95.00;;;;;;4995114;28;20000;-67
2021/10/06 03:44:08;;;;;;;;;;;10.40;95.20;;;;;;5000265;28;19909;-68
2021/10/06 03:46:34;;;;;;;;;;;10.40;95.30;;;;;;4987945;28;19963;-68
2021/10/06 03:48:59;;;;;;;;;;;10.40;95.30;;;;;;5000325;28;19993;-67
2021/10/06 03:51:25;;;;;;;;;;;10.40;95.30;;;;;;5007349;28;19914;-68
2021/10/06 03:53:50;;;;;;;;;;;10.40;95.10;;;;;;4994225;28;19909;-69
2021/10/06 03:56:16;;;;;;;;;;;10.40;95.30;;;;;;5001602;28;20004;-68
2021/10/06 03:58:41;;;;;;;;;;;10.30;95.30;;;;;;5000969;28;20414;-68
2021/10/06 04:01:07;;;;;;;;;;;10.20;95.40;;;;;;4996496;28;19917;-69
2021/10/06 04:03:32;;;;;;;;;;;10.30;95.60;;;;;;4998542;28;20281;-68
2021/10/06 04:05:58;;;;;;;;;;;10.20;95.30;;;;;;4991242;28;19916;-67
2021/10/06 04:08:23;;;;;;;;;;;10.20;95.50;;;;;;4994464;28;20041;-67
2021/10/06 04:10:49;;;;;;;;;;;10.20;95.50;;;;;;4994906;28;20688;-69
2021/10/06 04:13:14;;;;;;;;;;;10.20;95.40;;;;;;5003220;28;20387;-66
2021/10/06 04:15:40;;;;;;;;;;;10.30;95.50;;;;;;5000530;28;19909;-69
2021/10/06 04:18:06;;;;;;;;;;;10.30;95.30;;;;;;5000538;28;20344;-69
2021/10/06 04:20:34;;;;;;;;;;;10.30;95.30;;;;;;4998126;28;19910;-64
2021/10/06 04:23:00;;;;;;;;;;;10.30;95.20;;;;;;4996145;28;19972;-63
2021/10/06 04:25:25;;;;;;;;;;;10.30;95.20;;;;;;4994422;28;19917;-64
2021/10/06 04:27:51;;;;;;;;;;;10.30;95.00;;;;;;4993861;28;19965;-64
2021/10/06 04:30:16;;;;;;;;;;;10.30;95.20;;;;;;4991484;28;19968;-63
2021/10/06 04:32:42;;;;;;;;;;;10.30;95.00;;;;;;4991232;28;20004;-62
2021/10/06 04:35:08;;;;;;;;;;;10.20;95.30;;;;;;4991164;28;19972;-63
2021/10/06 04:37:33;;;;;;;;;;;10.20;95.10;;;;;;4997314;28;20380;-63
2021/10/06 04:39:59;;;;;;;;;;;10.20;95.40;;;;;;5000311;28;19914;-63
2021/10/06 04:42:24;;;;;;;;;;;10.20;95.30;;;;;;4996101;28;19914;-64
2021/10/06 04:44:50;;;;;;;;;;;10.10;95.40;;;;;;4999141;28;20336;-63
2021/10/06 04:47:15;;;;;;;;;;;10.10;95.40;;;;;;4999388;28;19921;-63
2021/10/06 04:49:41;;;;;;;;;;;10.00;95.50;;;;;;4996946;28;19910;-63
2021/10/06 04:52:06;;;;;;;;;;;10.00;95.60;;;;;;5000973;28;19921;-63
2021/10/06 04:54:32;;;;;;;;;;;10.10;95.80;;;;;;4999312;28;19913;-64
2021/10/06 04:56:57;;;;;;;;;;;10.10;95.70;;;;;;5002470;28;19971;-63
2021/10/06 04:59:23;;;;;;;;;;;10.10;95.40;;;;;;4998253;28;19917;-64
2021/10/06 05:01:48;;;;;;;;;;;10.10;95.40;;;;;;4995496;28;19921;-64
2021/10/06 05:04:14;;;;;;;;;;;10.10;95.40;;;;;;4996756;28;19920;-63
2021/10/06 05:06:39;;;;;;;;;;;10.10;95.60;;;;;;4992880;28;20000;-63
2021/10/06 05:09:05;;;;;;;;;;;10.00;95.40;;;;;;5009274;28;19916;-64
2021/10/06 05:11:31;;;;;;;;;;;9.90;95.60;;;;;;4997342;28;19916;-63
2021/10/06 05:13:58;;;;;;;;;;;9.90;95.70;;;;;;5003562;28;19910;-64
2021/10/06 05:16:24;;;;;;;;;;;9.80;95.90;;;;;;5003090;28;20337;-64
2021/10/06 05:18:49;;;;;;;;;;;9.80;95.80;;;;;;5003136;28;19996;-64
2021/10/06 05:21:15;;;;;;;;;;;9.80;96.00;;;;;;4999207;28;19953;-63
2021/10/06 05:23:40;;;;;;;;;;;9.80;96.00;;;;;;5001505;28;20281;-63
2021/10/06 05:26:06;;;;;;;;;;;9.80;96.00;;;;;;4998315;28;19918;-63
2021/10/06 05:28:31;;;;;;;;;;;9.70;96.00;;;;;;4999101;28;19918;-63
2021/10/06 05:30:57;;;;;;;;;;;9.70;96.10;;;;;;5006316;28;19910;-63
2021/10/06 05:33:23;;;;;;;;;;;9.60;96.20;;;;;;5001585;28;19984;-63
2021/10/06 05:35:48;;;;;;;;;;;9.60;96.20;;;;;;4988532;28;19920;-64
2021/10/06 05:38:14;;;;;;;;;;;9.60;96.20;;;;;;4999677;28;19980;-63
2021/10/06 05:40:39;;;;;;;;;;;9.60;96.10;;;;;;5005283;28;19921;-65
2021/10/06 05:43:09;;;;;;;;;;;9.60;96.40;;;;;;5004987;28;19910;-65
2021/10/06 05:45:34;;;;;;;;;;;9.60;96.40;;;;;;4996220;28;20537;-66
2021/10/06 05:47:59;;;;;;;;;;;9.60;96.30;;;;;;5003733;28;20015;-66
2021/10/06 05:50:25;;;;;;;;;;;9.60;96.20;;;;;;5001112;28;19968;-66
2021/10/06 05:52:50;;;;;;;;;;;9.60;96.20;;;;;;5006714;28;19913;-66
2021/10/06 05:55:16;;;;;;;;;;;9.60;96.20;;;;;;4995227;28;19949;-66
2021/10/06 05:57:41;;;;;;;;;;;9.60;96.20;;;;;;4992438;28;19910;-66
2021/10/06 06:00:07;;;;;;;;;;;9.60;96.30;;;;;;5000732;28;19952;-66
2021/10/06 06:02:33;;;;;;;;;;;9.60;96.20;;;;;;4992431;28;19910;-66
2021/10/06 06:04:58;;;;;;;;;;;9.60;96.10;;;;;;4995847;28;20270;-66
2021/10/06 06:07:24;;;;;;;;;;;9.60;96.00;;;;;;5004438;28;19979;-65
2021/10/06 06:09:49;;;;;;;;;;;9.60;96.10;;;;;;4999941;28;19914;-66
2021/10/06 06:12:15;;;;;;;;;;;9.60;96.20;;;;;;4998347;28;19913;-66
2021/10/06 06:14:41;;;;;;;;;;;9.60;96.20;;;;;;5004331;28;19940;-66
2021/10/06 06:17:07;;;;;;;;;;;9.60;96.00;;;;;;5001565;28;19943;-66
2021/10/06 06:19:33;;;;;;;;;;;9.60;96.00;;;;;;4996949;28;19914;-66
2021/10/06 06:21:58;;;;;;;;;;;9.70;95.90;;;;;;4988853;28;20305;-64
2021/10/06 06:24:26;;;;;;;;;;;9.70;95.70;;;;;;4998567;28;20015;-64
2021/10/06 06:26:52;;;;;;;;;;;9.70;95.60;;;;;;4995411;28;19987;-64
2021/10/06 06:29:18;;;;;;;;;;;9.70;95.60;;;;;;4998935;28;19913;-64
2021/10/06 06:31:43;;;;;;;;;;;9.70;95.50;;;;;;4999547;28;19932;-63
2021/10/06 06:34:09;;;;;;;;;;;9.60;95.60;;;;;;5002846;28;20020;-63
2021/10/06 06:36:34;;;;;;;;;;;9.60;95.70;;;;;;4994805;28;20412;-63
2021/10/06 06:39:00;;;;;;;;;;;9.70;95.70;;;;;;4999573;28;20176;-64
2021/10/06 06:41:25;;;;;;;;;;;9.70;95.70;;;;;;4996572;28;20380;-66
2021/10/06 06:43:51;;;;;;;;;;;9.80;95.70;;;;;;4994610;28;19917;-69
2021/10/06 06:46:16;;;;;;;;;;;9.80;95.40;;;;;;5001978;28;19918;-67
2021/10/06 06:48:42;;;;;;;;;;;9.90;95.30;;;;;;5003199;28;19913;-66
2021/10/06 06:51:08;;;;;;;;;;;10.00;95.10;;;;;;4997427;28;19913;-66
2021/10/06 06:53:33;;;;;;;;;;;10.00;95.10;;;;;;4995949;28;19921;-67
2021/10/06 06:55:59;;;;;;;;;;;10.10;94.80;;;;;;4996777;28;20384;-66
2021/10/06 06:58:25;;;;;;;;;;;10.10;94.70;;;;;;4995688;28;19914;-66
2021/10/06 07:00:50;;;;;;;;;;;10.10;94.70;;;;;;4994832;28;19953;-66
2021/10/06 07:03:16;;;;;;;;;;;10.20;94.60;;;;;;4989864;28;19918;-66
2021/10/06 07:05:42;;;;;;;;;;;10.20;94.50;;;;;;5000136;28;20078;-66
2021/10/06 07:08:08;;;;;;;;;;;10.20;94.40;;;;;;4999573;28;19920;-67
2021/10/06 07:10:34;;;;;;;;;;;10.30;94.20;;;;;;4992295;28;19914;-66
2021/10/06 07:13:00;;;;;;;;;;;10.40;94.30;;;;;;5001651;28;19909;-66
2021/10/06 07:15:25;;;;;;;;;;;10.40;94.00;;;;;;5001358;28;19913;-66
2021/10/06 07:17:51;;;;;;;;;;;10.50;93.90;;;;;;4996862;28;19952;-66
2021/10/06 07:20:16;;;;;;;;;;;10.50;93.60;;;;;;4994749;28;20239;-66
2021/10/06 07:22:44;;;;;;;;;;;10.60;93.40;;;;;;4995341;28;19964;-63
2021/10/06 07:25:09;;;;;;;;;;;10.70;92.70;;;;;;4995097;28;19936;-63
2021/10/06 07:27:35;;;;;;;;;;;10.80;93.00;;;;;;4997514;28;20000;-63
2021/10/06 07:30:02;;;;;;;;;;;10.80;92.20;;;;;;4997086;28;19910;-64
2021/10/06 07:32:27;;;;;;;;;;;11.00;91.40;;;;;;5003581;28;19928;-64
2021/10/06 07:34:53;;;;;;;;;;;11.00;91.30;;;;;;4997678;28;19914;-64
2021/10/06 07:37:18;;;;;;;;;;;11.10;90.90;;;;;;4989090;28;20028;-64
2021/10/06 07:39:44;;;;;;;;;;;11.10;91.40;;;;;;4992215;28;20262;-63
2021/10/06 07:42:09;;;;;;;;;;;11.20;90.70;;;;;;4989489;28;20353;-64
2021/10/06 07:44:35;;;;;;;;;;;11.40;89.00;;;;;;4997631;28;19984;-64
2021/10/06 07:47:00;;;;;;;;;;;11.50;89.20;;;;;;4995847;28;20418;-63
2021/10/06 07:49:26;;;;;;;;;;;11.60;89.10;;;;;;4995106;28;19924;-64
2021/10/06 07:51:52;;;;;;;;;;;11.70;87.80;;;;;;5001773;28;19910;-64
2021/10/06 07:54:17;;;;;;;;;;;11.80;88.40;;;;;;4994792;28;19914;-64
2021/10/06 07:56:43;;;;;;;;;;;11.90;87.00;;;;;;4991921;28;19952;-63
2021/10/06 07:59:08;;;;;;;;;;;12.00;86.70;;;;;;4994457;28;20400;-64
2021/10/06 08:01:35;;;;;;;;;;;12.10;86.60;;;;;;4985372;28;19917;-64
2021/10/06 08:04:00;;;;;;;;;;;12.40;86.70;;;;;;4987215;28;20381;-64
2021/10/06 08:06:26;;;;;;;;;;;12.50;85.20;;;;;;4988766;28;20000;-64
2021/10/06 08:08:52;;;;;;;;;;;12.70;86.10;;;;;;4992189;28;20380;-64
2021/10/06 08:11:17;;;;;;;;;;;12.80;83.50;;;;;;4992706;28;20012;-64
2021/10/06 08:13:43;;;;;;;;;;;12.70;84.00;;;;;;4988053;28;20003;-64
2021/10/06 08:16:08;;;;;;;;;;;12.70;83.50;;;;;;4993218;28;19909;-63
2021/10/06 08:18:34;;;;;;;;;;;12.80;84.00;;;;;;4988256;28;20502;-63
2021/10/06 08:20:59;;;;;;;;;;;12.70;83.00;;;;;;4985721;28;20407;-63
2021/10/06 08:23:26;;;;;;;;;;;12.80;83.10;;;;;;4985058;28;19953;-63
2021/10/06 08:25:52;;;;;;;;;;;12.80;82.80;;;;;;4993819;28;19917;-64
2021/10/06 08:28:18;;;;;;;;;;;12.80;81.90;;;;;;4992300;28;20396;-63
2021/10/06 08:30:43;;;;;;;;;;;13.00;83.60;;;;;;4991122;28;19939;-62
2021/10/06 08:33:09;;;;;;;;;;;13.00;82.00;;;;;;4993428;28;19910;-63
2021/10/06 08:35:35;;;;;;;;;;;13.10;82.30;;;;;;4990559;28;19913;-63
2021/10/06 08:38:01;;;;;;;;;;;13.20;82.30;;;;;;4991139;28;20373;-63
2021/10/06 08:40:27;;;;;;;;;;;13.30;81.10;;;;;;4989833;28;19917;-63
2021/10/06 08:42:53;;;;;;;;;;;13.80;81.20;;;;;;4996733;28;20273;-62
2021/10/06 08:45:18;;;;;;;;;;;13.70;79.30;;;;;;5001373;28;19914;-63
2021/10/06 08:47:44;;;;;;;;;;;13.60;80.40;;;;;;5001875;28;20048;-63
2021/10/06 08:50:11;;;;;;;;;;;13.60;79.20;;;;;;4991277;28;20063;-63
2021/10/06 08:52:36;;;;;;;;;;;14.10;80.70;;;;;;5001752;28;19913;-65
2021/10/06 08:55:03;;;;;;;;;;;14.10;79.70;;;;;;5000654;28;19917;-65
2021/10/06 08:57:28;;;;;;;;;;;14.20;79.80;;;;;;4995556;28;20364;-64
2021/10/06 08:59:54;;;;;;;;;;;14.10;77.40;;;;;;4986008;28;19913;-64
2021/10/06 09:02:19;;;;;;;;;;;14.00;77.80;;;;;;4996693;28;19909;-64
2021/10/06 09:04:47;;;;;;;;;;;14.20;77.10;;;;;;5004937;28;19913;-64
2021/10/06 09:07:12;;;;;;;;;;;14.10;76.60;;;;;;5001650;28;19952;-64
2021/10/06 09:09:38;;;;;;;;;;;14.30;77.40;;;;;;4993703;28;20774;-64
2021/10/06 09:12:23;;;;;;;;;;;14.30;76.70;;;;;;4997825;28;20296;-64
2021/10/06 09:14:49;;;;;;;;;;;14.20;77.10;;;;;;4998675;28;20195;-64
2021/10/06 09:17:19;;;;;;;;;;;14.80;75.70;;;;;;5002452;28;19960;-64
2021/10/06 09:19:53;;;;;;;;;;;15.00;74.60;;;;;;4997120;28;20354;-64
2021/10/06 09:22:26;;;;;;;;;;;15.20;74.40;;;;;;5000633;28;20439;-64
2021/10/06 09:24:51;;;;;;;;;;;15.00;73.60;;;;;;5004936;28;20265;-64
2021/10/06 09:27:18;;;;;;;;;;;15.10;74.90;;;;;;4999874;28;19923;-64
2021/10/06 09:29:51;;;;;;;;;;;15.40;73.60;;;;;;4997948;28;20021;-64
2021/10/06 09:32:24;;;;;;;;;;;15.50;72.80;;;;;;5000618;28;20004;-64
2021/10/06 09:35:05;;;;;;;;;;;15.70;75.10;;;;;;5006860;28;19910;-64
2021/10/06 09:37:30;;;;;;;;;;;15.60;70.80;;;;;;5001421;28;20217;-64
2021/10/06 09:39:56;;;;;;;;;;;15.50;72.00;;;;;;5000669;28;20023;-64
2021/10/06 09:42:22;;;;;;;;;;;15.60;70.30;;;;;;4997610;28;19906;-64
2021/10/06 09:44:57;;;;;;;;;;;15.50;71.00;;;;;;4992853;28;20007;-65
2021/10/06 09:47:23;;;;;;;;;;;15.30;71.30;;;;;;4991585;28;19959;-65
2021/10/06 09:49:55;;;;;;;;;;;15.10;72.20;;;;;;4992988;28;19985;-66
2021/10/06 09:52:25;;;;;;;;;;;15.00;72.30;;;;;;4994143;28;19910;-65
2021/10/06 09:54:58;;;;;;;;;;;15.30;73.10;;;;;;4995230;28;19978;-65
2021/10/06 09:57:30;;;;;;;;;;;15.30;71.90;;;;;;5003842;28;19909;-65
2021/10/06 09:59:57;;;;;;;;;;;15.30;71.90;;;;;;4999298;28;20035;-65
2021/10/06 10:02:24;;;;;;;;;;;15.30;73.40;;;;;;4998246;28;19920;-65
2021/10/06 10:04:50;;;;;;;;;;;15.20;71.40;;;;;;4993754;28;19936;-65
2021/10/06 10:07:15;;;;;;;;;;;15.00;72.00;;;;;;4994998;28;19925;-65
2021/10/06 10:09:42;;;;;;;;;;;14.80;71.60;;;;;;5003122;28;20330;-65
2021/10/06 10:12:08;;;;;;;;;;;14.80;73.00;;;;;;4997983;28;19918;-64
2021/10/06 10:14:33;;;;;;;;;;;14.70;71.80;;;;;;4997029;28;19909;-63
2021/10/06 10:16:59;;;;;;;;;;;14.80;72.90;;;;;;4998010;28;19997;-64
2021/10/06 10:19:26;;;;;;;;;;;15.00;72.60;;;;;;5003444;28;19913;-65
2021/10/06 10:21:52;;;;;;;;;;;15.00;73.80;;;;;;4996336;28;20296;-64
2021/10/06 10:24:21;;;;;;;;;;;14.70;72.80;;;;;;4995662;28;19924;-64
2021/10/06 10:27:01;;;;;;;;;;;14.50;72.00;;;;;;4994676;28;19932;-62
2021/10/06 10:29:45;;;;;;;;;;;14.70;73.20;;;;;;4996849;28;20389;-64
2021/10/06 10:32:12;;;;;;;;;;;15.70;72.40;;;;;;4997155;28;19917;-64
2021/10/06 10:34:56;;;;;;;;;;;16.60;68.60;;;;;;4994916;28;19940;-65
2021/10/06 10:37:47;;;;;;;;;;;16.90;69.10;;;;;;4993237;28;19909;-63
2021/10/06 10:40:32;;;;;;;;;;;16.80;66.30;;;;;;4988832;28;20017;-65
2021/10/06 10:43:24;;;;;;;;;;;16.00;67.00;;;;;;4993967;28;20286;-62
2021/10/06 10:45:51;;;;;;;;;;;15.80;69.40;;;;;;4996239;28;19909;-64
2021/10/06 10:48:20;;;;;;;;;;;15.40;70.10;;;;;;4998705;28;19940;-64
2021/10/06 10:50:45;;;;;;;;;;;15.40;70.50;;;;;;4999036;28;19945;-65
2021/10/06 10:53:13;;;;;;;;;;;15.20;71.10;;;;;;4996487;28;19999;-65
2021/10/06 10:55:52;;;;;;;;;;;15.30;70.90;;;;;;4992913;28;19916;-63
2021/10/06 10:58:34;;;;;;;;;;;15.40;70.90;;;;;;4998776;28;19910;-63
2021/10/06 11:01:01;;;;;;;;;;;15.90;69.40;;;;;;4995755;28;20365;-65
2021/10/06 11:03:28;;;;;;;;;;;16.20;66.90;;;;;;4992499;28;19949;-63
2021/10/06 11:05:53;;;;;;;;;;;15.80;66.60;;;;;;4994250;28;20276;-65
2021/10/06 11:08:22;;;;;;;;;;;15.50;66.70;;;;;;4994367;28;19914;-64
2021/10/06 11:10:47;;;;;;;;;;;15.70;68.10;;;;;;4989216;28;20269;-64
2021/10/06 11:13:32;;;;;;;;;;;15.60;69.50;;;;;;4988587;28;19916;-64
2021/10/06 11:15:57;;;;;;;;;;;16.00;69.10;;;;;;4994394;28;19913;-64
2021/10/06 11:18:26;;;;;;;;;;;15.80;67.10;;;;;;4993851;28;20253;-62
2021/10/06 11:20:58;;;;;;;;;;;15.70;68.50;;;;;;4989089;28;19918;-63
2021/10/06 11:23:29;;;;;;;;;;;15.60;68.80;;;;;;4995223;28;19920;-65
2021/10/06 11:25:57;;;;;;;;;;;15.40;69.70;;;;;;4994227;28;20385;-64
2021/10/06 11:28:23;;;;;;;;;;;15.30;70.10;;;;;;4988245;28;20720;-65
2021/10/06 11:30:55;;;;;;;;;;;15.00;70.60;;;;;;4984286;28;19913;-63
2021/10/06 11:33:25;;;;;;;;;;;14.90;71.00;;;;;;4994909;28;19945;-64
2021/10/06 11:35:51;;;;;;;;;;;14.80;71.70;;;;;;4996166;28;19913;-65
2021/10/06 11:38:16;;;;;;;;;;;14.70;71.10;;;;;;4986965;28;19936;-65
2021/10/06 11:40:41;;;;;;;;;;;14.70;73.00;;;;;;4993073;28;19913;-63
2021/10/06 11:43:07;;;;;;;;;;;15.10;72.20;;;;;;5001806;28;20280;-64
2021/10/06 11:45:32;;;;;;;;;;;15.10;70.20;;;;;;4996557;28;20429;-64
2021/10/06 11:48:01;;;;;;;;;;;15.60;70.20;;;;;;4993210;28;19913;-63
2021/10/06 11:50:34;;;;;;;;;;;15.40;68.30;;;;;;4995279;28;19913;-64
2021/10/06 11:52:59;;;;;;;;;;;15.50;68.70;;;;;;4994636;28;20323;-64
2021/10/06 11:55:24;;;;;;;;;;;15.50;69.60;;;;;;4984620;28;19965;-64
2021/10/06 11:57:50;;;;;;;;;;;15.50;68.80;;;;;;4988802;28;20079;-63
2021/10/06 12:00:19;;;;;;;;;;;15.20;68.70;;;;;;4992665;28;19914;-65
2021/10/06 12:02:45;;;;;;;;;;;15.00;69.20;;;;;;4987361;28;20136;-65
2021/10/06 12:05:10;;;;;;;;;;;15.10;69.60;;;;;;4996895;28;20545;-64
2021/10/06 12:07:36;;;;;;;;;;;14.90;70.10;;;;;;4999038;28;19921;-63
2021/10/06 12:10:09;;;;;;;;;;;14.70;70.20;;;;;;4999319;28;19917;-64
2021/10/06 12:12:36;;;;;;;;;;;14.60;71.40;;;;;;4999337;28;19918;-65
2021/10/06 12:15:02;;;;;;;;;;;14.60;71.80;;;;;;5003348;28;19933;-65
2021/10/06 12:17:30;;;;;;;;;;;14.50;72.40;;;;;;4996530;28;20370;-64
2021/10/06 12:20:01;;;;;;;;;;;14.50;73.90;;;;;;4999156;28;20580;-62
2021/10/06 12:22:30;;;;;;;;;;;14.30;73.50;;;;;;4991877;28;19917;-63
2021/10/06 12:24:57;;;;;;;;;;;14.40;72.90;;;;;;4999579;28;19948;-62
2021/10/06 12:27:26;;;;;;;;;;;14.30;73.40;;;;;;4991894;28;19975;-62
2021/10/06 12:30:07;;;;;;;;;;;14.20;72.90;;;;;;4998680;28;19940;-63
2021/10/06 12:32:33;;;;;;;;;;;14.10;73.30;;;;;;4996121;28;19979;-62
2021/10/06 12:35:05;;;;;;;;;;;14.20;74.10;;;;;;4998080;28;20450;-63
2021/10/06 12:37:31;;;;;;;;;;;14.10;74.70;;;;;;4991792;28;20416;-63
2021/10/06 12:39:56;;;;;;;;;;;14.10;76.50;;;;;;4993257;28;20008;-64
2021/10/06 12:42:22;;;;;;;;;;;14.00;76.80;;;;;;4997197;28;19947;-63
2021/10/06 12:44:49;;;;;;;;;;;14.00;76.60;;;;;;4996553;28;19925;-63
2021/10/06 12:47:17;;;;;;;;;;;14.40;77.00;;;;;;4989830;28;19917;-64
2021/10/06 12:49:51;;;;;;;;;;;14.70;75.90;;;;;;5000810;28;19936;-64
2021/10/06 12:52:21;;;;;;;;;;;16.10;73.70;;;;;;4996555;28;19914;-64
2021/10/06 12:54:46;;;;;;;;;;;16.30;69.90;;;;;;4996602;28;19936;-64
2021/10/06 12:57:12;;;;;;;;;;;16.80;69.60;;;;;;4996243;28;19909;-64
2021/10/06 12:59:38;;;;;;;;;;;17.70;68.60;;;;;;4999751;28;19924;-65
2021/10/06 13:02:05;;;;;;;;;;;17.60;65.10;;;;;;4987988;28;20072;-64
2021/10/06 13:04:31;;;;;;;;;;;17.70;66.30;;;;;;4999147;28;19929;-63
2021/10/06 13:06:57;;;;;;;;;;;17.80;64.10;;;;;;4989323;28;19913;-64
2021/10/06 13:09:23;;;;;;;;;;;17.50;64.80;;;;;;4996156;28;19956;-65
2021/10/06 13:11:49;;;;;;;;;;;17.30;65.20;;;;;;4999273;28;19929;-63
2021/10/06 13:14:15;;;;;;;;;;;17.00;65.30;;;;;;4994680;28;19940;-62
2021/10/06 13:16:41;;;;;;;;;;;17.10;66.00;;;;;;5001253;28;20440;-64
2021/10/06 13:19:07;;;;;;;;;;;16.20;65.60;;;;;;5000791;28;20616;-65
2021/10/06 13:21:33;;;;;;;;;;;16.00;66.80;;;;;;5002764;28;19917;-62
2021/10/06 13:23:59;;;;;;;;;;;15.70;68.00;;;;;;5005072;28;19940;-64
2021/10/06 13:26:25;;;;;;;;;;;15.50;69.30;;;;;;4995292;28;20357;-64
2021/10/06 13:28:51;;;;;;;;;;;15.30;70.60;;;;;;4996629;28;19917;-64
2021/10/06 13:31:16;;;;;;;;;;;15.00;70.70;;;;;;5003116;28;19925;-64
2021/10/06 13:33:42;;;;;;;;;;;14.90;72.00;;;;;;4992415;28;19916;-64
2021/10/06 13:36:08;;;;;;;;;;;14.60;72.60;;;;;;4992626;28;20530;-64
2021/10/06 13:38:34;;;;;;;;;;;14.80;73.00;;;;;;4997200;28;19961;-64
2021/10/06 13:41:00;;;;;;;;;;;14.90;71.40;;;;;;4998753;28;19911;-64
2021/10/06 13:43:26;;;;;;;;;;;15.40;69.70;;;;;;4997070;28;20003;-65
2021/10/06 13:45:51;;;;;;;;;;;17.00;65.90;;;;;;4995188;28;20655;-64
2021/10/06 13:48:16;;;;;;;;;;;17.50;60.80;;;;;;5004551;28;19924;-65
2021/10/06 13:50:42;;;;;;;;;;;18.30;59.10;;;;;;5002789;28;20005;-64
2021/10/06 13:53:07;;;;;;;;;;;17.80;58.30;;;;;;4990692;28;19920;-63
2021/10/06 13:55:33;;;;;;;;;;;17.70;58.30;;;;;;4996445;28;19917;-65
2021/10/06 13:57:58;;;;;;;;;;;18.10;56.90;;;;;;5001015;28;19916;-64
2021/10/06 14:00:24;;;;;;;;;;;17.00;60.00;;;;;;5001144;28;20023;-63
2021/10/06 14:02:50;;;;;;;;;;;16.30;61.70;;;;;;4999679;28;19964;-63
2021/10/06 14:05:15;;;;;;;;;;;16.00;62.40;;;;;;4996183;28;19917;-64
2021/10/06 14:07:41;;;;;;;;;;;15.60;64.00;;;;;;4996403;28;19914;-65
2021/10/06 14:10:07;;;;;;;;;;;15.40;65.20;;;;;;5007590;28;20029;-63
2021/10/06 14:12:32;;;;;;;;;;;15.40;66.70;;;;;;4999434;28;19920;-64
2021/10/06 14:14:58;;;;;;;;;;;15.30;66.60;;;;;;4995657;28;20518;-65